Lytle, Texas
Current Conditions -  °F | °C
As of 12:35 AM on Wednesday 26 Nov 2014 (Local Time) from KCVB Reporting Station
Clear Clear  
Wind Chill: 41°   Ceiling: Unl
Heat Index: 44°   Visibility: 10mi
Dew Point: 32°   Wind: 5mph
Humidity: 63%   Direction: 330°NNW
Pressure: 30.23"   Gusts: NA
Location:  29.23°N, 98.8°W
Report Text: KCVB 260635Z AUTO 33004KT 10SM CLR 07/00 A3023 RMK AO2 T00651001
Loading
Personal Weather Stations






























Interactive Weather Map New forecast layout! Learn more

10-Day Weather Forecast

Advertisements
Track Severe Weather on mobile